createdAt,value
2022-12-23T00:01:03.215Z,98956.40
2022-12-23T00:06:17.157Z,98960.20
2022-12-23T00:11:21.292Z,98968.00
2022-12-23T00:16:24.995Z,98973.80
2022-12-23T00:21:28.839Z,98983.80
2022-12-23T00:26:32.557Z,98983.20
2022-12-23T00:31:37.055Z,98984.40
2022-12-23T00:36:41.879Z,98990.40
2022-12-23T00:42:05.182Z,98991.00
2022-12-23T00:47:29.019Z,98993.20
2022-12-23T00:52:33.355Z,98996.20
2022-12-23T00:57:37.093Z,99000.00
2022-12-23T01:02:59.360Z,99009.20
2022-12-23T01:08:12.522Z,99008.40
2022-12-23T01:13:16.829Z,99004.20
2022-12-23T01:18:20.415Z,99007.80
2022-12-23T01:23:24.238Z,99005.40
2022-12-23T01:28:30.280Z,99007.00
2022-12-23T01:33:34.596Z,99007.20
2022-12-23T01:38:38.511Z,99006.20
2022-12-23T01:43:46.845Z,99016.40
2022-12-23T01:48:53.932Z,99025.20
2022-12-23T01:54:02.264Z,99025.60
2022-12-23T01:59:37.187Z,99033.20
2022-12-23T02:04:41.368Z,99029.20
2022-12-23T02:09:45.507Z,99036.40
2022-12-23T02:15:29.256Z,99035.40
2022-12-23T02:21:03.818Z,99037.00
2022-12-23T02:26:38.329Z,99031.80
2022-12-23T02:31:58.688Z,99031.40
2022-12-23T02:37:17.551Z,99038.60
2022-12-23T02:42:36.517Z,99037.80
2022-12-23T02:47:52.119Z,99034.20
2022-12-23T02:53:01.074Z,99041.60
2022-12-23T02:58:13.844Z,99041.60
2022-12-23T03:03:17.943Z,99047.00
2022-12-23T03:08:32.418Z,99054.20
2022-12-23T03:14:05.413Z,99052.40
2022-12-23T03:19:24.386Z,99042.00
2022-12-23T03:24:49.413Z,99034.40
2022-12-23T03:30:20.063Z,99036.60
2022-12-23T03:35:36.979Z,99035.40
2022-12-23T03:46:57.376Z,99054.80
2022-12-23T03:52:21.213Z,99048.80
2022-12-23T03:57:40.063Z,99050.80
2022-12-23T04:03:00.745Z,99048.40
2022-12-23T04:08:21.774Z,99048.00
2022-12-23T04:13:28.859Z,99053.60
2022-12-23T04:18:33.361Z,99050.00
2022-12-23T04:23:37.081Z,99038.00
2022-12-23T04:28:40.875Z,99042.40
2022-12-23T04:33:44.649Z,99047.00
2022-12-23T04:38:48.630Z,99042.00
2022-12-23T04:43:53.448Z,99045.80
2022-12-23T04:48:57.714Z,99047.80
2022-12-23T04:54:01.830Z,99053.00
2022-12-23T04:59:05.495Z,99058.40
2022-12-23T05:04:13.551Z,99060.40
2022-12-23T05:09:17.622Z,99062.60
2022-12-23T05:14:21.441Z,99052.80
2022-12-23T05:19:26.808Z,99047.80
2022-12-23T05:24:30.611Z,99046.20
2022-12-23T05:29:34.437Z,99049.00
2022-12-23T05:34:38.389Z,99055.20
2022-12-23T05:39:42.328Z,99061.60
2022-12-23T05:44:46.827Z,99063.20
2022-12-23T05:49:51.394Z,99058.60
2022-12-23T05:54:56.746Z,99057.60
2022-12-23T06:00:00.584Z,99055.60
2022-12-23T06:05:05.364Z,99064.00
2022-12-23T06:10:11.954Z,99077.20
2022-12-23T06:15:16.782Z,99069.60
2022-12-23T06:20:21.223Z,99078.00
2022-12-23T06:25:25.555Z,99084.80
2022-12-23T06:30:29.675Z,99087.80
2022-12-23T06:35:33.620Z,99086.20
2022-12-23T06:40:37.520Z,99095.80
2022-12-23T06:45:46.333Z,99098.80
2022-12-23T06:50:50.198Z,99095.40
2022-12-23T06:56:02.684Z,99098.20
2022-12-23T07:01:07.032Z,99109.40
2022-12-23T07:06:11.097Z,99104.60
2022-12-23T07:11:14.936Z,99110.80
2022-12-23T07:16:18.891Z,99111.00
2022-12-23T07:21:28.853Z,99114.00
2022-12-23T07:26:33.861Z,99113.60
2022-12-23T07:31:40.937Z,99109.60
2022-12-23T07:36:45.296Z,99106.20
2022-12-23T07:41:55.509Z,99106.80
2022-12-23T07:47:07.793Z,99106.60
2022-12-23T07:52:11.822Z,99111.80
2022-12-23T07:57:16.256Z,99116.60
2022-12-23T08:02:25.722Z,99126.20
2022-12-23T08:07:29.981Z,99114.00
2022-12-23T08:12:34.809Z,99116.40
2022-12-23T08:17:38.941Z,99116.60
2022-12-23T08:22:43.187Z,99103.00
2022-12-23T08:27:47.389Z,99109.20
2022-12-23T08:32:51.952Z,99107.20
2022-12-23T08:37:55.980Z,99113.80
2022-12-23T08:43:00.005Z,99119.40
2022-12-23T08:48:05.276Z,99114.00
2022-12-23T08:53:09.758Z,99122.00
2022-12-23T08:58:15.502Z,99129.00
2022-12-23T09:03:19.507Z,99120.60
2022-12-23T09:08:24.649Z,99121.40
2022-12-23T09:13:35.259Z,99125.80
2022-12-23T09:18:40.109Z,99121.20
2022-12-23T09:23:44.551Z,99114.00
2022-12-23T09:28:49.301Z,99122.00
2022-12-23T09:33:54.664Z,99119.20
2022-12-23T09:38:59.459Z,99119.00
2022-12-23T09:44:15.413Z,99103.20
2022-12-23T09:49:24.252Z,99109.40
2022-12-23T09:54:41.779Z,99106.40
2022-12-23T10:00:20.611Z,99107.60
2022-12-23T10:06:03.248Z,99102.60
2022-12-23T10:11:22.453Z,99102.20
2022-12-23T10:16:43.290Z,99094.60
2022-12-23T10:21:54.583Z,99094.60
2022-12-23T10:27:07.019Z,99087.60
2022-12-23T10:33:03.055Z,99085.20
2022-12-23T10:38:30.342Z,99077.20
2022-12-23T10:43:53.821Z,99071.60
2022-12-23T10:49:52.324Z,99070.40
2022-12-23T10:54:56.380Z,99066.60
2022-12-23T11:00:00.388Z,99058.80
2022-12-23T11:05:09.448Z,99052.80
2022-12-23T11:10:29.136Z,99046.80
2022-12-23T11:15:40.067Z,99047.40
2022-12-23T11:21:01.770Z,99043.40
2022-12-23T11:26:18.196Z,99030.40
2022-12-23T11:31:36.634Z,99021.20
2022-12-23T11:36:42.329Z,99018.00
2022-12-23T11:41:51.054Z,99023.80
2022-12-23T11:46:56.105Z,99017.40
2022-12-23T11:52:12.859Z,99010.40
2022-12-23T11:57:26.380Z,99018.80
2022-12-23T12:02:45.298Z,99030.60
2022-12-23T12:07:51.908Z,99036.20
2022-12-23T12:13:09.503Z,99033.60
2022-12-23T12:18:19.650Z,99048.20
2022-12-23T12:23:35.892Z,99056.40
2022-12-23T12:28:44.714Z,99044.60
2022-12-23T12:33:55.540Z,99039.20
2022-12-23T12:39:00.968Z,99039.40
2022-12-23T12:44:17.029Z,99051.80
2022-12-23T12:49:33.711Z,99047.80
2022-12-23T12:54:52.825Z,99054.00
2022-12-23T13:00:05.631Z,99047.80
2022-12-23T13:05:38.878Z,99040.80
2022-12-23T13:10:57.860Z,99055.80
2022-12-23T13:16:42.189Z,99055.00
2022-12-23T13:22:28.788Z,99061.00
2022-12-23T13:27:44.879Z,99052.20
2022-12-23T13:33:20.517Z,99060.80
2022-12-23T13:39:00.835Z,99053.60
2022-12-23T13:44:09.950Z,99046.60
2022-12-23T13:49:24.245Z,99055.00
2022-12-23T13:54:56.133Z,99053.60
2022-12-23T14:00:34.309Z,99054.00
2022-12-23T14:05:53.593Z,99050.20
2022-12-23T14:11:12.203Z,99055.00
2022-12-23T14:16:33.160Z,99054.00
2022-12-23T14:22:15.744Z,99052.00
2022-12-23T14:28:09.272Z,99048.20
2022-12-23T14:33:19.245Z,99053.60
2022-12-23T14:38:31.916Z,99054.60
2022-12-23T14:43:56.725Z,99055.20
2022-12-23T14:49:36.921Z,99054.20
2022-12-23T14:54:46.482Z,99060.40
2022-12-23T15:00:06.789Z,99057.80
2022-12-23T15:05:11.522Z,99069.40
2022-12-23T15:10:23.709Z,99066.80
2022-12-23T15:15:35.218Z,99069.60
2022-12-23T15:20:41.634Z,99085.20
2022-12-23T15:25:51.589Z,99080.40
2022-12-23T15:30:57.527Z,99078.40
2022-12-23T15:36:06.039Z,99074.20
2022-12-23T15:41:19.118Z,99082.60
2022-12-23T15:46:30.173Z,99091.00
2022-12-23T15:52:12.462Z,99098.20
2022-12-23T15:57:22.304Z,99105.00
2022-12-23T16:03:00.341Z,99101.40
2022-12-23T16:08:28.506Z,99097.60
2022-12-23T16:13:34.323Z,99101.20
2022-12-23T16:18:47.273Z,99108.40
2022-12-23T16:23:53.353Z,99104.80
2022-12-23T16:29:01.556Z,99116.00
2022-12-23T16:34:08.333Z,99107.40
2022-12-23T16:39:22.720Z,99109.80
2022-12-23T16:44:26.734Z,99102.40
2022-12-23T16:49:34.087Z,99107.40
2022-12-23T16:54:38.379Z,99106.80
2022-12-23T16:59:41.991Z,99113.00
2022-12-23T17:04:45.610Z,99123.60
2022-12-23T17:09:49.384Z,99125.00
2022-12-23T17:14:53.266Z,99123.00
2022-12-23T17:19:58.112Z,99121.80
2022-12-23T17:25:02.141Z,99122.00
2022-12-23T17:30:11.062Z,99133.20
2022-12-23T17:35:15.625Z,99126.00
2022-12-23T17:40:20.319Z,99128.80
2022-12-23T17:45:28.203Z,99135.00
2022-12-23T17:50:35.435Z,99134.60
2022-12-23T17:55:40.775Z,99127.00
2022-12-23T18:00:48.519Z,99113.80
2022-12-23T18:06:01.585Z,99114.60
2022-12-23T18:11:17.512Z,99113.80
2022-12-23T18:16:24.222Z,99117.00
2022-12-23T18:21:31.296Z,99129.40
2022-12-23T18:26:36.643Z,99130.40
2022-12-23T18:31:51.396Z,99132.40
2022-12-23T18:36:56.602Z,99138.00
2022-12-23T18:42:00.997Z,99138.20
2022-12-23T18:47:05.872Z,99137.20
2022-12-23T18:52:15.567Z,99140.80
2022-12-23T18:57:20.650Z,99152.60
2022-12-23T19:02:26.908Z,99156.80
2022-12-23T19:07:33.700Z,99151.60
2022-12-23T19:12:39.454Z,99159.60
2022-12-23T19:17:44.328Z,99165.00
2022-12-23T19:22:49.840Z,99176.20
2022-12-23T19:27:53.613Z,99184.80
2022-12-23T19:32:57.773Z,99185.60
2022-12-23T19:38:02.196Z,99182.20
2022-12-23T19:43:06.606Z,99191.00
2022-12-23T19:48:13.528Z,99199.20
2022-12-23T19:53:18.279Z,99197.00
2022-12-23T19:58:36.561Z,99193.00
2022-12-23T20:03:47.929Z,99192.00
2022-12-23T20:08:59.757Z,99196.00
2022-12-23T20:14:06.775Z,99197.20
2022-12-23T20:19:11.788Z,99193.80
2022-12-23T20:24:17.167Z,99189.00
2022-12-23T20:29:21.304Z,99187.20
2022-12-23T20:34:25.440Z,99201.20
2022-12-23T20:39:29.723Z,99200.80
2022-12-23T20:44:36.202Z,99206.60
2022-12-23T20:49:41.416Z,99214.20
2022-12-23T20:54:45.476Z,99216.80
2022-12-23T20:59:50.402Z,99216.00
2022-12-23T21:04:54.593Z,99218.40
2022-12-23T21:09:59.311Z,99222.80
2022-12-23T21:15:03.936Z,99236.80
2022-12-23T21:20:09.668Z,99236.20
2022-12-23T21:25:13.932Z,99243.00
2022-12-23T21:30:18.804Z,99246.00
2022-12-23T21:35:23.122Z,99245.60
2022-12-23T21:40:27.743Z,99255.20
2022-12-23T21:45:31.796Z,99250.80
2022-12-23T21:50:36.117Z,99258.20
2022-12-23T21:55:40.654Z,99262.20
2022-12-23T22:00:47.159Z,99258.40
2022-12-23T22:05:50.885Z,99262.40
2022-12-23T22:10:54.800Z,99270.80
2022-12-23T22:15:59.895Z,99268.80
2022-12-23T22:21:15.182Z,99272.00
2022-12-23T22:26:25.656Z,99277.60
2022-12-23T22:31:40.707Z,99285.80
2022-12-23T22:36:45.756Z,99290.80
2022-12-23T22:41:51.927Z,99297.00
2022-12-23T22:46:56.182Z,99293.40
2022-12-23T22:52:00.879Z,99300.00
2022-12-23T22:57:06.032Z,99300.60
2022-12-23T23:02:09.630Z,99291.60
2022-12-23T23:07:13.529Z,99292.80
2022-12-23T23:12:17.372Z,99298.00
2022-12-23T23:17:27.834Z,99296.80
2022-12-23T23:22:31.568Z,99297.80
2022-12-23T23:27:35.593Z,99308.20
2022-12-23T23:32:39.136Z,99305.60
2022-12-23T23:37:43.094Z,99317.80
2022-12-23T23:42:46.982Z,99314.00
2022-12-23T23:47:51.369Z,99315.40
2022-12-23T23:52:55.135Z,99315.80
2022-12-23T23:57:59.367Z,99318.60
